Johnny Sr — WTP4938 — position and weather

sailwx.info

Track history (hours):
 
Tides and Currents Weather Stations Pressure Air Temp Water Temp Dewpoint Dewpoint Depression Visibility Wind Speed Wind Dir Waves Ship Positions

Johnny Sr

Owner: CALLAIS AND Sons LLC, CUT OFF, LA. More information available from US FCC via Universal Licensing System and Coast Guard Vessel Documentation Center.

Last reported at 2017-Sep-14 01:07 UTC. Time now 2017-Sep-22 00:51 UTC.
Position N 29°49' W 092°04'.

; draft 3 m.

Type: Towing. MMSI: 367005190.

Date/timePositionNaut miles runAvg speedWind from/ knotsBaromVisibWave heightAir tempDewpointWater temp
2017-Sep-14 01:07N 29°49' W 092°04'1 3.8
2017-Sep-14 00:52N 29°48' W 092°05'1 3.7
2017-Sep-14 00:30N 29°48' W 092°06'2 4.1
2017-Sep-14 00:01N 29°47' W 092°08'2 4.5
2017-Sep-13 23:31N 29°47' W 092°11'2 4.4
2017-Sep-13 23:01N 29°47' W 092°13'50 4.0
2017-Sep-13 10:40N 29°56' W 093°10'1 3.7
2017-Sep-13 10:23N 29°57' W 093°10'1 3.2
2017-Sep-13 10:00N 29°58' W 093°11'2 3.5
2017-Sep-13 09:31N 29°59' W 093°13'2 3.2
2017-Sep-13 09:00N 30°01' W 093°14'1 2.7
2017-Sep-13 08:30N 30°02' W 093°14'1 1.9
2017-Sep-13 08:01N 30°02' W 093°15'1 2.7
2017-Sep-13 07:31N 30°03' W 093°16'2 3.5
2017-Sep-13 07:01N 30°05' W 093°17'1 2.4
2017-Sep-13 06:30N 30°06' W 093°18'0 0.8
2017-Sep-13 06:01N 30°06' W 093°18'1 1.1
2017-Sep-13 05:31N 30°06' W 093°19'0 0.0
2017-Sep-13 05:01N 30°06' W 093°19'0 0.0
2017-Sep-13 04:31N 30°06' W 093°19'0 0.0
2017-Sep-13 04:01N 30°06' W 093°19'0 0.0
2017-Sep-13 03:31N 30°06' W 093°19'0 0.0
2017-Sep-13 03:01N 30°06' W 093°19'0 0.0
2017-Sep-13 02:31N 30°06' W 093°19'0 0.0
2017-Sep-13 02:01N 30°06' W 093°19'0 0.0
2017-Sep-13 01:31N 30°06' W 093°19'0 0.0
2017-Sep-13 01:00N 30°06' W 093°19'1 1.2
2017-Sep-13 00:31N 30°06' W 093°19'2 4.6
2017-Sep-13 00:00N 30°04' W 093°21'2 4.8
2017-Sep-12 23:30N 30°04' W 093°24'2 4.8
2017-Sep-12 23:00N 30°04' W 093°26'84 2.3
2017-Sep-11 10:02N 29°42' W 094°59'0 4.4
2017-Sep-11 09:59N 29°41' W 094°59'5 4.8
2017-Sep-11 08:50N 29°36' W 094°57'2 4.9
2017-Sep-11 08:29N 29°35' W 094°56'81 3.5
2017-Sep-10 09:21N 30°04' W 093°28'1 2.7
2017-Sep-10 09:00N 30°04' W 093°27'1 2.7
2017-Sep-10 08:30N 30°04' W 093°25'2 2.9
2017-Sep-10 07:58N 30°04' W 093°24'1 2.7
2017-Sep-10 07:30N 30°04' W 093°22'1 1.9
2017-Sep-10 07:00N 30°04' W 093°21'1 2.5
2017-Sep-10 06:30N 30°05' W 093°20'2 3.0
2017-Sep-10 06:00N 30°06' W 093°19'1 1.5
2017-Sep-10 05:29N 30°06' W 093°18'0 0.1
2017-Sep-10 05:00N 30°06' W 093°18'1 2.6
2017-Sep-10 04:30N 30°05' W 093°17'1 2.4
2017-Sep-10 04:00N 30°04' W 093°16'0 0.7
2017-Sep-10 03:30N 30°04' W 093°16'0 0.0
2017-Sep-10 03:00N 30°04' W 093°16'0 0.0
2017-Sep-10 02:30N 30°04' W 093°16'0 0.1
2017-Sep-10 02:00N 30°04' W 093°16'1 1.0
2017-Sep-10 01:30N 30°03' W 093°16'1 2.7
2017-Sep-10 01:00N 30°02' W 093°15'1 2.1
2017-Sep-10 00:30N 30°01' W 093°14'53 3.2
2017-Sep-09 07:53N 29°48' W 092°15'1 1.7
2017-Sep-09 07:30N 29°48' W 092°14'2 3.1
2017-Sep-09 07:00N 29°47' W 092°13'1 1.0
2017-Sep-09 06:30N 29°47' W 092°12'1 2.6
2017-Sep-09 06:00N 29°47' W 092°11'2 3.1
2017-Sep-09 05:30N 29°47' W 092°09'73 3.5
2017-Sep-08 08:34N 29°32' W 090°47'0 4.0
2017-Sep-08 08:28N 29°32' W 090°46'2 3.8
2017-Sep-08 08:00N 29°34' W 090°45'2 3.6
2017-Sep-08 07:30N 29°34' W 090°43'2 3.5
2017-Sep-08 07:00N 29°36' W 090°43'1 2.4
2017-Sep-08 06:30N 29°37' W 090°41'1 2.5
2017-Sep-08 06:00N 29°36' W 090°40'2 3.5
2017-Sep-08 05:30N 29°35' W 090°38'4 3.5
2017-Sep-08 04:30N 29°34' W 090°34'  
Track history (hours):
 
Tides and Currents Weather Stations Pressure Air Temp Water Temp Dewpoint Dewpoint Depression Visibility Wind Speed Wind Dir Waves Ship Positions

Johnny Sr

Owner: CALLAIS AND Sons LLC, CUT OFF, LA. More information available from US FCC via Universal Licensing System and Coast Guard Vessel Documentation Center.

Last reported at 2017-Sep-14 01:07 UTC. Time now 2017-Sep-22 00:51 UTC.
Position N 29°49' W 092°04'.

; draft 3 m.

Type: Towing. MMSI: 367005190.

Date/timePositionNaut miles runAvg speedWind from/ knotsBaromVisibWave heightAir tempDewpointWater temp
2017-Sep-14 01:07N 29°49' W 092°04'1 3.8
2017-Sep-14 00:52N 29°48' W 092°05'1 3.7
2017-Sep-14 00:30N 29°48' W 092°06'2 4.1
2017-Sep-14 00:01N 29°47' W 092°08'2 4.5
2017-Sep-13 23:31N 29°47' W 092°11'2 4.4
2017-Sep-13 23:01N 29°47' W 092°13'50 4.0
2017-Sep-13 10:40N 29°56' W 093°10'1 3.7
2017-Sep-13 10:23N 29°57' W 093°10'1 3.2
2017-Sep-13 10:00N 29°58' W 093°11'2 3.5
2017-Sep-13 09:31N 29°59' W 093°13'2 3.2
2017-Sep-13 09:00N 30°01' W 093°14'1 2.7
2017-Sep-13 08:30N 30°02' W 093°14'1 1.9
2017-Sep-13 08:01N 30°02' W 093°15'1 2.7
2017-Sep-13 07:31N 30°03' W 093°16'2 3.5
2017-Sep-13 07:01N 30°05' W 093°17'1 2.4
2017-Sep-13 06:30N 30°06' W 093°18'0 0.8
2017-Sep-13 06:01N 30°06' W 093°18'1 1.1
2017-Sep-13 05:31N 30°06' W 093°19'0 0.0
2017-Sep-13 05:01N 30°06' W 093°19'0 0.0
2017-Sep-13 04:31N 30°06' W 093°19'0 0.0
2017-Sep-13 04:01N 30°06' W 093°19'0 0.0
2017-Sep-13 03:31N 30°06' W 093°19'0 0.0
2017-Sep-13 03:01N 30°06' W 093°19'0 0.0
2017-Sep-13 02:31N 30°06' W 093°19'0 0.0
2017-Sep-13 02:01N 30°06' W 093°19'0 0.0
2017-Sep-13 01:31N 30°06' W 093°19'0 0.0
2017-Sep-13 01:00N 30°06' W 093°19'1 1.2
2017-Sep-13 00:31N 30°06' W 093°19'2 4.6
2017-Sep-13 00:00N 30°04' W 093°21'2 4.8
2017-Sep-12 23:30N 30°04' W 093°24'2 4.8
2017-Sep-12 23:00N 30°04' W 093°26'84 2.3
2017-Sep-11 10:02N 29°42' W 094°59'0 4.4
2017-Sep-11 09:59N 29°41' W 094°59'5 4.8
2017-Sep-11 08:50N 29°36' W 094°57'2 4.9
2017-Sep-11 08:29N 29°35' W 094°56'81 3.5
2017-Sep-10 09:21N 30°04' W 093°28'1 2.7
2017-Sep-10 09:00N 30°04' W 093°27'1 2.7
2017-Sep-10 08:30N 30°04' W 093°25'2 2.9
2017-Sep-10 07:58N 30°04' W 093°24'1 2.7
2017-Sep-10 07:30N 30°04' W 093°22'1 1.9
2017-Sep-10 07:00N 30°04' W 093°21'1 2.5
2017-Sep-10 06:30N 30°05' W 093°20'2 3.0
2017-Sep-10 06:00N 30°06' W 093°19'1 1.5
2017-Sep-10 05:29N 30°06' W 093°18'0 0.1
2017-Sep-10 05:00N 30°06' W 093°18'1 2.6
2017-Sep-10 04:30N 30°05' W 093°17'1 2.4
2017-Sep-10 04:00N 30°04' W 093°16'0 0.7
2017-Sep-10 03:30N 30°04' W 093°16'0 0.0
2017-Sep-10 03:00N 30°04' W 093°16'0 0.0
2017-Sep-10 02:30N 30°04' W 093°16'0 0.1
2017-Sep-10 02:00N 30°04' W 093°16'1 1.0
2017-Sep-10 01:30N 30°03' W 093°16'1 2.7
2017-Sep-10 01:00N 30°02' W 093°15'1 2.1
2017-Sep-10 00:30N 30°01' W 093°14'53 3.2
2017-Sep-09 07:53N 29°48' W 092°15'1 1.7
2017-Sep-09 07:30N 29°48' W 092°14'2 3.1
2017-Sep-09 07:00N 29°47' W 092°13'1 1.0
2017-Sep-09 06:30N 29°47' W 092°12'1 2.6
2017-Sep-09 06:00N 29°47' W 092°11'2 3.1
2017-Sep-09 05:30N 29°47' W 092°09'73 3.5
2017-Sep-08 08:34N 29°32' W 090°47'0 4.0
2017-Sep-08 08:28N 29°32' W 090°46'2 3.8
2017-Sep-08 08:00N 29°34' W 090°45'2 3.6
2017-Sep-08 07:30N 29°34' W 090°43'2 3.5
2017-Sep-08 07:00N 29°36' W 090°43'1 2.4
2017-Sep-08 06:30N 29°37' W 090°41'1 2.5
2017-Sep-08 06:00N 29°36' W 090°40'2 3.5
2017-Sep-08 05:30N 29°35' W 090°38'4 3.5
2017-Sep-08 04:30N 29°34' W 090°34'  

Dump ship's entire track history